Карточка аэропорта URSS

Внимание!
Информация на этой странице в стадии наполнения.
Если вы не увидели какой-то информации, или заметили неточность - пожалуйста сообщите нам!
Спасибо!
Команда RU-STAFF
Название аэропортаСочи
Название аэропорта (англ.)Sochi
Превышение89 ft. (27.1 m.)
Координаты43°26.634', 39°56.55'
Высота перехода13000 ft
Эшелон переходаQNH>=977hPa: FL150; QNH<977hPa: FL160
Коды ответчика1060-1077
Зона ОрВДРостов-на-Дону РПИ (URRV)
Данные METARURSS 240800Z 20003MPS 160V240 9999 FEW030 27/21 Q1005 R02/010070 R06/010070 NOSIG RMK R06/22003MPS MT OBSC QFE753
Проноз погоды (TAF)URSS 240457Z 2406/2506 16004G09MPS 9999 SCT020 SCT040CB BKN100 TEMPO 2406/2417 VRB07G12MPS -TSRA BECMG 2417/2418 05004G09MPS
NOTAMshow/hide NOTAM
AWOS   TABLE

Информация о ВПП

ВПП Длина ВПП (м.) Покрытие Курс ВПП Частота ILS
242890Цементобетон238 
202500Цементобетон202 
062890Цементобетон58111.1
022500Цементобетон22110.5

Диспетчерские позиции

Позывной Наименование органа УВД Частота
URSS_TWRСочи-Старт121.200
URSS_R_APPСочи-Круг119.700
URSS_GNDСочи-Руление119.000
URSS_DELСочи-Деливери132.700
URSS_APPСочи-Подход124.600
URSSFM1119.000



Спутниковое изображение